sensor_id;sensor_type;location;lat;lon;timestamp;P1;durP1;ratioP1;P2;durP2;ratioP2
53263;SDS011;39153;52.680;6.172;2024-02-21T00:02:03;21.15;;;7.32;;
53263;SDS011;39153;52.680;6.172;2024-02-21T00:04:29;14.75;;;6.72;;
53263;SDS011;39153;52.680;6.172;2024-02-21T00:06:55;17.70;;;6.85;;
53263;SDS011;39153;52.680;6.172;2024-02-21T00:09:20;18.02;;;6.50;;
53263;SDS011;39153;52.680;6.172;2024-02-21T00:11:46;19.73;;;6.65;;
53263;SDS011;39153;52.680;6.172;2024-02-21T00:14:12;23.02;;;6.22;;
53263;SDS011;39153;52.680;6.172;2024-02-21T00:16:38;18.35;;;6.00;;
53263;SDS011;39153;52.680;6.172;2024-02-21T00:19:04;20.73;;;5.72;;
53263;SDS011;39153;52.680;6.172;2024-02-21T00:21:29;19.98;;;5.50;;
53263;SDS011;39153;52.680;6.172;2024-02-21T00:23:55;16.35;;;5.50;;
53263;SDS011;39153;52.680;6.172;2024-02-21T00:26:21;19.35;;;5.50;;
53263;SDS011;39153;52.680;6.172;2024-02-21T00:28:46;23.10;;;6.32;;
53263;SDS011;39153;52.680;6.172;2024-02-21T00:31:12;20.35;;;6.60;;
53263;SDS011;39153;52.680;6.172;2024-02-21T00:33:38;19.85;;;5.82;;
53263;SDS011;39153;52.680;6.172;2024-02-21T00:36:03;20.70;;;6.25;;
53263;SDS011;39153;52.680;6.172;2024-02-21T00:38:29;24.50;;;6.45;;
53263;SDS011;39153;52.680;6.172;2024-02-21T00:40:55;21.33;;;5.90;;
53263;SDS011;39153;52.680;6.172;2024-02-21T00:43:20;24.83;;;6.20;;
53263;SDS011;39153;52.680;6.172;2024-02-21T00:45:49;19.67;;;5.93;;
53263;SDS011;39153;52.680;6.172;2024-02-21T00:48:15;18.65;;;5.88;;
53263;SDS011;39153;52.680;6.172;2024-02-21T00:50:40;20.95;;;5.95;;
53263;SDS011;39153;52.680;6.172;2024-02-21T00:53:06;22.30;;;5.30;;
53263;SDS011;39153;52.680;6.172;2024-02-21T00:55:32;23.10;;;6.07;;
53263;SDS011;39153;52.680;6.172;2024-02-21T00:57:57;24.40;;;6.00;;
53263;SDS011;39153;52.680;6.172;2024-02-21T01:00:23;18.05;;;6.03;;
53263;SDS011;39153;52.680;6.172;2024-02-21T01:02:49;25.25;;;7.63;;
53263;SDS011;39153;52.680;6.172;2024-02-21T01:05:14;25.15;;;5.65;;
53263;SDS011;39153;52.680;6.172;2024-02-21T01:07:40;19.42;;;5.55;;
53263;SDS011;39153;52.680;6.172;2024-02-21T01:10:06;21.10;;;5.47;;
53263;SDS011;39153;52.680;6.172;2024-02-21T01:12:32;22.00;;;6.20;;
53263;SDS011;39153;52.680;6.172;2024-02-21T01:14:57;20.45;;;6.15;;
53263;SDS011;39153;52.680;6.172;2024-02-21T01:17:23;29.10;;;6.70;;
53263;SDS011;39153;52.680;6.172;2024-02-21T01:19:49;24.52;;;6.93;;
53263;SDS011;39153;52.680;6.172;2024-02-21T01:22:14;27.27;;;7.03;;
53263;SDS011;39153;52.680;6.172;2024-02-21T01:24:41;20.45;;;6.72;;
53263;SDS011;39153;52.680;6.172;2024-02-21T01:27:07;25.50;;;7.20;;
53263;SDS011;39153;52.680;6.172;2024-02-21T01:29:33;20.98;;;6.72;;
53263;SDS011;39153;52.680;6.172;2024-02-21T01:31:58;30.88;;;6.80;;
53263;SDS011;39153;52.680;6.172;2024-02-21T01:34:24;23.13;;;7.38;;
53263;SDS011;39153;52.680;6.172;2024-02-21T01:36:50;29.40;;;7.97;;
53263;SDS011;39153;52.680;6.172;2024-02-21T01:39:15;33.55;;;7.63;;
53263;SDS011;39153;52.680;6.172;2024-02-21T01:41:41;26.92;;;7.32;;
53263;SDS011;39153;52.680;6.172;2024-02-21T01:44:07;23.83;;;7.47;;
53263;SDS011;39153;52.680;6.172;2024-02-21T01:46:32;22.52;;;6.53;;
53263;SDS011;39153;52.680;6.172;2024-02-21T01:48:59;29.38;;;7.25;;
53263;SDS011;39153;52.680;6.172;2024-02-21T01:51:26;30.55;;;7.13;;
53263;SDS011;39153;52.680;6.172;2024-02-21T01:53:53;29.70;;;7.00;;
53263;SDS011;39153;52.680;6.172;2024-02-21T01:56:20;25.38;;;6.50;;
53263;SDS011;39153;52.680;6.172;2024-02-21T01:58:47;24.42;;;7.25;;
53263;SDS011;39153;52.680;6.172;2024-02-21T02:01:14;25.73;;;7.85;;
53263;SDS011;39153;52.680;6.172;2024-02-21T02:03:39;28.17;;;8.30;;
53263;SDS011;39153;52.680;6.172;2024-02-21T02:06:06;32.63;;;9.20;;
53263;SDS011;39153;52.680;6.172;2024-02-21T02:08:31;28.70;;;7.97;;
53263;SDS011;39153;52.680;6.172;2024-02-21T02:10:58;32.00;;;9.73;;
53263;SDS011;39153;52.680;6.172;2024-02-21T02:13:24;31.95;;;8.32;;
53263;SDS011;39153;52.680;6.172;2024-02-21T02:15:50;34.25;;;8.02;;
53263;SDS011;39153;52.680;6.172;2024-02-21T02:18:17;30.77;;;8.32;;
53263;SDS011;39153;52.680;6.172;2024-02-21T02:20:45;27.27;;;8.25;;
53263;SDS011;39153;52.680;6.172;2024-02-21T02:25:49;31.02;;;7.40;;
53263;SDS011;39153;52.680;6.172;2024-02-21T02:28:19;29.33;;;7.90;;
53263;SDS011;39153;52.680;6.172;2024-02-21T02:30:45;29.83;;;7.25;;
53263;SDS011;39153;52.680;6.172;2024-02-21T02:33:11;27.50;;;6.53;;
53263;SDS011;39153;52.680;6.172;2024-02-21T02:35:37;28.75;;;6.60;;
53263;SDS011;39153;52.680;6.172;2024-02-21T02:38:03;28.92;;;6.35;;
53263;SDS011;39153;52.680;6.172;2024-02-21T02:40:29;33.67;;;6.40;;
53263;SDS011;39153;52.680;6.172;2024-02-21T02:42:56;25.98;;;6.30;;
53263;SDS011;39153;52.680;6.172;2024-02-21T02:45:22;27.00;;;6.68;;
53263;SDS011;39153;52.680;6.172;2024-02-21T02:47:51;31.70;;;6.50;;
53263;SDS011;39153;52.680;6.172;2024-02-21T02:50:17;31.95;;;6.50;;
53263;SDS011;39153;52.680;6.172;2024-02-21T02:52:43;33.22;;;7.05;;
53263;SDS011;39153;52.680;6.172;2024-02-21T02:55:08;26.35;;;7.30;;
53263;SDS011;39153;52.680;6.172;2024-02-21T02:57:34;32.67;;;7.32;;
53263;SDS011;39153;52.680;6.172;2024-02-21T03:00:00;27.45;;;6.50;;
53263;SDS011;39153;52.680;6.172;2024-02-21T03:02:25;33.95;;;6.50;;
53263;SDS011;39153;52.680;6.172;2024-02-21T03:04:51;31.13;;;6.80;;
53263;SDS011;39153;52.680;6.172;2024-02-21T03:07:17;32.15;;;7.03;;
53263;SDS011;39153;52.680;6.172;2024-02-21T03:09:42;25.13;;;6.43;;
53263;SDS011;39153;52.680;6.172;2024-02-21T03:12:08;37.13;;;7.18;;
53263;SDS011;39153;52.680;6.172;2024-02-21T03:14:34;35.67;;;6.95;;
53263;SDS011;39153;52.680;6.172;2024-02-21T03:17:00;28.90;;;7.72;;
53263;SDS011;39153;52.680;6.172;2024-02-21T03:19:26;25.48;;;6.85;;
53263;SDS011;39153;52.680;6.172;2024-02-21T03:21:52;34.30;;;7.07;;
53263;SDS011;39153;52.680;6.172;2024-02-21T03:24:18;30.20;;;7.28;;
53263;SDS011;39153;52.680;6.172;2024-02-21T03:26:44;31.10;;;7.30;;
53263;SDS011;39153;52.680;6.172;2024-02-21T03:29:11;32.75;;;7.60;;
53263;SDS011;39153;52.680;6.172;2024-02-21T03:31:37;37.05;;;7.25;;
53263;SDS011;39153;52.680;6.172;2024-02-21T03:34:02;31.63;;;7.47;;
53263;SDS011;39153;52.680;6.172;2024-02-21T03:36:28;34.55;;;7.88;;
53263;SDS011;39153;52.680;6.172;2024-02-21T03:38:54;35.10;;;7.10;;
53263;SDS011;39153;52.680;6.172;2024-02-21T03:41:20;36.53;;;7.35;;
53263;SDS011;39153;52.680;6.172;2024-02-21T03:43:46;29.55;;;6.40;;
53263;SDS011;39153;52.680;6.172;2024-02-21T03:46:12;34.78;;;7.20;;
53263;SDS011;39153;52.680;6.172;2024-02-21T03:48:37;28.67;;;6.88;;
53263;SDS011;39153;52.680;6.172;2024-02-21T03:51:03;39.25;;;8.38;;
53263;SDS011;39153;52.680;6.172;2024-02-21T03:53:30;28.92;;;7.53;;
53263;SDS011;39153;52.680;6.172;2024-02-21T03:55:55;24.23;;;6.57;;
53263;SDS011;39153;52.680;6.172;2024-02-21T03:58:21;28.25;;;7.07;;
53263;SDS011;39153;52.680;6.172;2024-02-21T04:00:47;28.30;;;7.18;;
53263;SDS011;39153;52.680;6.172;2024-02-21T04:03:13;33.63;;;7.00;;
53263;SDS011;39153;52.680;6.172;2024-02-21T04:05:39;33.38;;;7.25;;
53263;SDS011;39153;52.680;6.172;2024-02-21T04:08:05;26.15;;;7.13;;
53263;SDS011;39153;52.680;6.172;2024-02-21T04:10:31;30.83;;;7.53;;
53263;SDS011;39153;52.680;6.172;2024-02-21T04:12:57;33.10;;;6.97;;
53263;SDS011;39153;52.680;6.172;2024-02-21T04:15:22;37.22;;;8.15;;
53263;SDS011;39153;52.680;6.172;2024-02-21T04:17:48;31.38;;;7.00;;
53263;SDS011;39153;52.680;6.172;2024-02-21T04:20:14;32.22;;;8.90;;
53263;SDS011;39153;52.680;6.172;2024-02-21T04:22:44;31.92;;;7.78;;
53263;SDS011;39153;52.680;6.172;2024-02-21T04:25:10;33.55;;;7.40;;
53263;SDS011;39153;52.680;6.172;2024-02-21T04:27:38;38.08;;;7.88;;
53263;SDS011;39153;52.680;6.172;2024-02-21T04:30:04;34.20;;;8.63;;
53263;SDS011;39153;52.680;6.172;2024-02-21T04:32:31;30.17;;;8.55;;
53263;SDS011;39153;52.680;6.172;2024-02-21T04:34:57;30.98;;;8.00;;
53263;SDS011;39153;52.680;6.172;2024-02-21T04:37:23;33.05;;;8.10;;
53263;SDS011;39153;52.680;6.172;2024-02-21T04:39:49;35.55;;;7.38;;
53263;SDS011;39153;52.680;6.172;2024-02-21T04:42:16;31.25;;;7.88;;
53263;SDS011;39153;52.680;6.172;2024-02-21T04:44:42;32.58;;;8.05;;
53263;SDS011;39153;52.680;6.172;2024-02-21T04:47:08;31.60;;;8.20;;
53263;SDS011;39153;52.680;6.172;2024-02-21T04:49:34;30.52;;;7.50;;
53263;SDS011;39153;52.680;6.172;2024-02-21T04:52:00;26.38;;;7.90;;
53263;SDS011;39153;52.680;6.172;2024-02-21T04:54:26;40.10;;;8.27;;
53263;SDS011;39153;52.680;6.172;2024-02-21T04:56:52;38.83;;;9.05;;
53263;SDS011;39153;52.680;6.172;2024-02-21T04:59:17;28.83;;;8.00;;
53263;SDS011;39153;52.680;6.172;2024-02-21T05:01:43;32.60;;;8.50;;
53263;SDS011;39153;52.680;6.172;2024-02-21T05:04:09;34.90;;;7.55;;
53263;SDS011;39153;52.680;6.172;2024-02-21T05:06:38;29.70;;;7.95;;
53263;SDS011;39153;52.680;6.172;2024-02-21T05:09:05;25.95;;;8.10;;
53263;SDS011;39153;52.680;6.172;2024-02-21T05:11:31;28.70;;;8.07;;
53263;SDS011;39153;52.680;6.172;2024-02-21T05:13:57;27.17;;;8.68;;
53263;SDS011;39153;52.680;6.172;2024-02-21T05:16:22;25.27;;;8.70;;
53263;SDS011;39153;52.680;6.172;2024-02-21T05:18:48;35.35;;;8.70;;
53263;SDS011;39153;52.680;6.172;2024-02-21T05:21:14;31.48;;;8.68;;
53263;SDS011;39153;52.680;6.172;2024-02-21T05:23:40;29.48;;;8.55;;
53263;SDS011;39153;52.680;6.172;2024-02-21T05:26:06;30.13;;;8.38;;
53263;SDS011;39153;52.680;6.172;2024-02-21T05:28:32;36.03;;;9.07;;
53263;SDS011;39153;52.680;6.172;2024-02-21T05:30:57;33.50;;;8.55;;
53263;SDS011;39153;52.680;6.172;2024-02-21T05:33:23;34.45;;;8.25;;
53263;SDS011;39153;52.680;6.172;2024-02-21T05:35:49;30.80;;;7.95;;
53263;SDS011;39153;52.680;6.172;2024-02-21T05:38:15;34.38;;;8.30;;
53263;SDS011;39153;52.680;6.172;2024-02-21T05:40:42;30.60;;;8.75;;
53263;SDS011;39153;52.680;6.172;2024-02-21T05:43:09;31.02;;;8.77;;
53263;SDS011;39153;52.680;6.172;2024-02-21T05:45:35;32.45;;;8.20;;
53263;SDS011;39153;52.680;6.172;2024-02-21T05:48:00;27.98;;;8.05;;
53263;SDS011;39153;52.680;6.172;2024-02-21T05:50:27;30.52;;;8.82;;
53263;SDS011;39153;52.680;6.172;2024-02-21T05:52:54;32.00;;;9.63;;
53263;SDS011;39153;52.680;6.172;2024-02-21T05:55:20;36.80;;;9.93;;
53263;SDS011;39153;52.680;6.172;2024-02-21T05:57:46;34.08;;;10.20;;
53263;SDS011;39153;52.680;6.172;2024-02-21T06:00:12;34.08;;;10.95;;
53263;SDS011;39153;52.680;6.172;2024-02-21T06:02:39;29.25;;;10.02;;
53263;SDS011;39153;52.680;6.172;2024-02-21T06:05:05;27.95;;;11.27;;
53263;SDS011;39153;52.680;6.172;2024-02-21T06:07:32;30.83;;;12.20;;
53263;SDS011;39153;52.680;6.172;2024-02-21T06:10:02;30.08;;;11.52;;
53263;SDS011;39153;52.680;6.172;2024-02-21T06:12:28;23.73;;;12.05;;
53263;SDS011;39153;52.680;6.172;2024-02-21T06:14:54;35.90;;;13.30;;
53263;SDS011;39153;52.680;6.172;2024-02-21T06:17:19;32.78;;;13.40;;
53263;SDS011;39153;52.680;6.172;2024-02-21T06:19:45;27.95;;;13.23;;
53263;SDS011;39153;52.680;6.172;2024-02-21T06:22:11;32.60;;;12.95;;
53263;SDS011;39153;52.680;6.172;2024-02-21T06:24:37;40.10;;;14.48;;
53263;SDS011;39153;52.680;6.172;2024-02-21T06:27:03;30.15;;;13.75;;
53263;SDS011;39153;52.680;6.172;2024-02-21T06:29:31;32.22;;;14.15;;
53263;SDS011;39153;52.680;6.172;2024-02-21T06:31:57;33.63;;;13.82;;
53263;SDS011;39153;52.680;6.172;2024-02-21T06:34:23;31.15;;;12.82;;
53263;SDS011;39153;52.680;6.172;2024-02-21T06:36:49;34.63;;;14.70;;
53263;SDS011;39153;52.680;6.172;2024-02-21T06:39:15;33.78;;;14.82;;
53263;SDS011;39153;52.680;6.172;2024-02-21T06:41:41;35.67;;;16.50;;
53263;SDS011;39153;52.680;6.172;2024-02-21T06:44:07;30.75;;;15.52;;
53263;SDS011;39153;52.680;6.172;2024-02-21T06:46:32;38.20;;;15.85;;
53263;SDS011;39153;52.680;6.172;2024-02-21T06:48:58;40.80;;;16.30;;
53263;SDS011;39153;52.680;6.172;2024-02-21T06:51:33;34.33;;;16.42;;
53263;SDS011;39153;52.680;6.172;2024-02-21T06:54:00;36.38;;;15.23;;
53263;SDS011;39153;52.680;6.172;2024-02-21T06:56:26;35.60;;;15.93;;
53263;SDS011;39153;52.680;6.172;2024-02-21T06:58:53;35.50;;;17.05;;
53263;SDS011;39153;52.680;6.172;2024-02-21T07:01:20;33.40;;;16.00;;
53263;SDS011;39153;52.680;6.172;2024-02-21T07:03:45;33.80;;;16.00;;
53263;SDS011;39153;52.680;6.172;2024-02-21T07:06:11;42.50;;;16.73;;
53263;SDS011;39153;52.680;6.172;2024-02-21T07:08:37;30.45;;;14.55;;
53263;SDS011;39153;52.680;6.172;2024-02-21T07:11:04;34.08;;;15.43;;
53263;SDS011;39153;52.680;6.172;2024-02-21T07:13:30;33.75;;;15.73;;
53263;SDS011;39153;52.680;6.172;2024-02-21T07:15:56;31.83;;;15.63;;
53263;SDS011;39153;52.680;6.172;2024-02-21T07:18:21;33.20;;;15.95;;
53263;SDS011;39153;52.680;6.172;2024-02-21T07:20:47;30.33;;;15.02;;
53263;SDS011;39153;52.680;6.172;2024-02-21T07:23:13;28.73;;;15.07;;
53263;SDS011;39153;52.680;6.172;2024-02-21T07:25:38;30.77;;;15.13;;
53263;SDS011;39153;52.680;6.172;2024-02-21T07:28:05;25.63;;;14.93;;
53263;SDS011;39153;52.680;6.172;2024-02-21T07:30:31;32.70;;;14.52;;
53263;SDS011;39153;52.680;6.172;2024-02-21T07:32:57;27.90;;;15.23;;
53263;SDS011;39153;52.680;6.172;2024-02-21T07:35:23;34.03;;;15.25;;
53263;SDS011;39153;52.680;6.172;2024-02-21T07:37:49;26.33;;;14.35;;
53263;SDS011;39153;52.680;6.172;2024-02-21T07:40:15;28.45;;;14.50;;
53263;SDS011;39153;52.680;6.172;2024-02-21T07:42:41;31.27;;;15.07;;
53263;SDS011;39153;52.680;6.172;2024-02-21T07:45:08;27.45;;;15.20;;
53263;SDS011;39153;52.680;6.172;2024-02-21T07:47:34;27.70;;;15.20;;
53263;SDS011;39153;52.680;6.172;2024-02-21T07:50:00;28.27;;;14.90;;
53263;SDS011;39153;52.680;6.172;2024-02-21T07:52:26;24.67;;;14.75;;
53263;SDS011;39153;52.680;6.172;2024-02-21T07:54:51;28.40;;;15.75;;
53263;SDS011;39153;52.680;6.172;2024-02-21T07:57:17;28.42;;;16.67;;
53263;SDS011;39153;52.680;6.172;2024-02-21T07:59:43;31.08;;;15.73;;
53263;SDS011;39153;52.680;6.172;2024-02-21T08:02:09;30.17;;;16.42;;
53263;SDS011;39153;52.680;6.172;2024-02-21T08:04:35;27.90;;;16.60;;
53263;SDS011;39153;52.680;6.172;2024-02-21T08:07:00;30.70;;;16.63;;
53263;SDS011;39153;52.680;6.172;2024-02-21T08:09:29;28.15;;;16.67;;
53263;SDS011;39153;52.680;6.172;2024-02-21T08:11:55;26.83;;;17.73;;
53263;SDS011;39153;52.680;6.172;2024-02-21T08:14:21;30.23;;;16.42;;
53263;SDS011;39153;52.680;6.172;2024-02-21T08:16:47;31.50;;;18.17;;
53263;SDS011;39153;52.680;6.172;2024-02-21T08:19:13;32.58;;;18.45;;
53263;SDS011;39153;52.680;6.172;2024-02-21T08:21:39;32.25;;;17.75;;
53263;SDS011;39153;52.680;6.172;2024-02-21T08:24:04;30.08;;;19.25;;
53263;SDS011;39153;52.680;6.172;2024-02-21T08:26:30;31.50;;;18.10;;
53263;SDS011;39153;52.680;6.172;2024-02-21T08:28:56;28.75;;;19.15;;
53263;SDS011;39153;52.680;6.172;2024-02-21T08:31:26;35.33;;;20.40;;
53263;SDS011;39153;52.680;6.172;2024-02-21T08:33:59;32.35;;;19.55;;
53263;SDS011;39153;52.680;6.172;2024-02-21T08:36:32;35.53;;;21.33;;
53263;SDS011;39153;52.680;6.172;2024-02-21T08:38:59;31.45;;;24.40;;
53263;SDS011;39153;52.680;6.172;2024-02-21T08:41:25;32.47;;;21.63;;
53263;SDS011;39153;52.680;6.172;2024-02-21T08:43:52;39.60;;;21.35;;
53263;SDS011;39153;52.680;6.172;2024-02-21T08:46:19;34.13;;;21.60;;
53263;SDS011;39153;52.680;6.172;2024-02-21T08:48:46;34.03;;;22.27;;
53263;SDS011;39153;52.680;6.172;2024-02-21T08:51:14;34.22;;;20.73;;
53263;SDS011;39153;52.680;6.172;2024-02-21T08:53:40;31.45;;;20.67;;
53263;SDS011;39153;52.680;6.172;2024-02-21T08:56:06;33.40;;;20.80;;
53263;SDS011;39153;52.680;6.172;2024-02-21T08:58:35;32.83;;;21.15;;
53263;SDS011;39153;52.680;6.172;2024-02-21T09:01:05;37.60;;;21.33;;
53263;SDS011;39153;52.680;6.172;2024-02-21T09:03:34;33.00;;;20.58;;
53263;SDS011;39153;52.680;6.172;2024-02-21T09:06:04;44.15;;;22.92;;
53263;SDS011;39153;52.680;6.172;2024-02-21T09:08:30;32.42;;;21.70;;
53263;SDS011;39153;52.680;6.172;2024-02-21T09:10:56;37.08;;;21.70;;
53263;SDS011;39153;52.680;6.172;2024-02-21T09:13:22;37.65;;;23.02;;
53263;SDS011;39153;52.680;6.172;2024-02-21T09:15:48;40.17;;;22.50;;
53263;SDS011;39153;52.680;6.172;2024-02-21T09:18:14;37.72;;;21.73;;
53263;SDS011;39153;52.680;6.172;2024-02-21T09:20:43;32.92;;;21.67;;
53263;SDS011;39153;52.680;6.172;2024-02-21T09:23:09;37.38;;;22.95;;
53263;SDS011;39153;52.680;6.172;2024-02-21T09:25:35;32.67;;;21.77;;
53263;SDS011;39153;52.680;6.172;2024-02-21T09:28:01;35.67;;;20.48;;
53263;SDS011;39153;52.680;6.172;2024-02-21T09:30:28;37.10;;;20.98;;
53263;SDS011;39153;52.680;6.172;2024-02-21T09:32:53;36.15;;;20.33;;
53263;SDS011;39153;52.680;6.172;2024-02-21T09:35:19;35.13;;;21.23;;
53263;SDS011;39153;52.680;6.172;2024-02-21T09:37:48;36.25;;;19.52;;
53263;SDS011;39153;52.680;6.172;2024-02-21T09:40:15;36.25;;;20.45;;
53263;SDS011;39153;52.680;6.172;2024-02-21T09:42:43;35.67;;;19.17;;
53263;SDS011;39153;52.680;6.172;2024-02-21T09:45:21;34.20;;;19.00;;
53263;SDS011;39153;52.680;6.172;2024-02-21T09:50:29;32.33;;;18.42;;
53263;SDS011;39153;52.680;6.172;2024-02-21T09:52:57;27.00;;;17.33;;
53263;SDS011;39153;52.680;6.172;2024-02-21T09:55:26;28.45;;;16.63;;
53263;SDS011;39153;52.680;6.172;2024-02-21T09:57:54;26.60;;;15.90;;
53263;SDS011;39153;52.680;6.172;2024-02-21T10:00:22;31.58;;;16.73;;
53263;SDS011;39153;52.680;6.172;2024-02-21T10:02:48;29.50;;;16.67;;
53263;SDS011;39153;52.680;6.172;2024-02-21T10:05:17;27.30;;;15.82;;
53263;SDS011;39153;52.680;6.172;2024-02-21T10:07:43;26.15;;;15.50;;
53263;SDS011;39153;52.680;6.172;2024-02-21T10:10:09;24.55;;;13.98;;
53263;SDS011;39153;52.680;6.172;2024-02-21T10:12:35;25.67;;;15.45;;
53263;SDS011;39153;52.680;6.172;2024-02-21T10:15:01;22.60;;;13.88;;
53263;SDS011;39153;52.680;6.172;2024-02-21T10:17:27;24.60;;;14.40;;
53263;SDS011;39153;52.680;6.172;2024-02-21T10:19:53;25.40;;;14.27;;
53263;SDS011;39153;52.680;6.172;2024-02-21T10:22:19;25.50;;;14.18;;
53263;SDS011;39153;52.680;6.172;2024-02-21T10:24:46;24.77;;;13.88;;
53263;SDS011;39153;52.680;6.172;2024-02-21T10:27:12;21.92;;;13.65;;
53263;SDS011;39153;52.680;6.172;2024-02-21T10:29:38;25.02;;;12.65;;
53263;SDS011;39153;52.680;6.172;2024-02-21T10:32:07;23.63;;;11.93;;
53263;SDS011;39153;52.680;6.172;2024-02-21T10:34:38;20.20;;;11.50;;
53263;SDS011;39153;52.680;6.172;2024-02-21T10:37:05;23.65;;;12.82;;
53263;SDS011;39153;52.680;6.172;2024-02-21T10:39:32;20.58;;;12.00;;
53263;SDS011;39153;52.680;6.172;2024-02-21T10:42:00;19.40;;;12.00;;
53263;SDS011;39153;52.680;6.172;2024-02-21T10:44:30;22.80;;;12.45;;
53263;SDS011;39153;52.680;6.172;2024-02-21T10:46:57;21.85;;;11.82;;
53263;SDS011;39153;52.680;6.172;2024-02-21T10:49:24;22.35;;;11.60;;
53263;SDS011;39153;52.680;6.172;2024-02-21T10:51:57;20.50;;;12.00;;
53263;SDS011;39153;52.680;6.172;2024-02-21T10:55:31;20.60;;;11.23;;
53263;SDS011;39153;52.680;6.172;2024-02-21T10:57:23;22.70;;;10.57;;
53263;SDS011;39153;52.680;6.172;2024-02-21T10:59:52;17.52;;;10.50;;
53263;SDS011;39153;52.680;6.172;2024-02-21T11:02:19;20.42;;;10.27;;
53263;SDS011;39153;52.680;6.172;2024-02-21T11:04:45;16.90;;;10.35;;
53263;SDS011;39153;52.680;6.172;2024-02-21T11:07:13;15.32;;;9.00;;
53263;SDS011;39153;52.680;6.172;2024-02-21T11:09:40;16.25;;;9.80;;
53263;SDS011;39153;52.680;6.172;2024-02-21T11:12:19;20.30;;;10.02;;
53263;SDS011;39153;52.680;6.172;2024-02-21T11:14:48;19.87;;;9.93;;
53263;SDS011;39153;52.680;6.172;2024-02-21T11:17:14;18.20;;;11.10;;
53263;SDS011;39153;52.680;6.172;2024-02-21T11:19:44;20.45;;;10.07;;
53263;SDS011;39153;52.680;6.172;2024-02-21T11:22:16;17.55;;;9.50;;
53263;SDS011;39153;52.680;6.172;2024-02-21T11:24:43;18.25;;;9.77;;
53263;SDS011;39153;52.680;6.172;2024-02-21T11:27:09;20.73;;;10.38;;
53263;SDS011;39153;52.680;6.172;2024-02-21T11:29:47;16.10;;;10.00;;
53263;SDS011;39153;52.680;6.172;2024-02-21T11:32:16;18.35;;;9.75;;
53263;SDS011;39153;52.680;6.172;2024-02-21T11:34:59;20.88;;;10.95;;
53263;SDS011;39153;52.680;6.172;2024-02-21T11:37:27;20.73;;;9.35;;
53263;SDS011;39153;52.680;6.172;2024-02-21T11:39:58;18.20;;;8.98;;
53263;SDS011;39153;52.680;6.172;2024-02-21T11:42:28;16.63;;;9.15;;
53263;SDS011;39153;52.680;6.172;2024-02-21T11:44:54;16.23;;;9.98;;
53263;SDS011;39153;52.680;6.172;2024-02-21T11:47:24;15.65;;;8.95;;
53263;SDS011;39153;52.680;6.172;2024-02-21T11:49:50;16.42;;;9.18;;
53263;SDS011;39153;52.680;6.172;2024-02-21T11:52:22;17.80;;;8.85;;
53263;SDS011;39153;52.680;6.172;2024-02-21T11:54:51;15.82;;;9.20;;
53263;SDS011;39153;52.680;6.172;2024-02-21T11:57:17;15.90;;;8.93;;
53263;SDS011;39153;52.680;6.172;2024-02-21T11:59:46;13.82;;;8.18;;
53263;SDS011;39153;52.680;6.172;2024-02-21T12:02:13;14.75;;;8.35;;
53263;SDS011;39153;52.680;6.172;2024-02-21T12:04:39;16.48;;;8.18;;
53263;SDS011;39153;52.680;6.172;2024-02-21T12:07:05;12.60;;;7.57;;
53263;SDS011;39153;52.680;6.172;2024-02-21T12:09:33;12.77;;;7.65;;
53263;SDS011;39153;52.680;6.172;2024-02-21T12:14:27;14.15;;;7.68;;
53263;SDS011;39153;52.680;6.172;2024-02-21T12:16:54;14.25;;;8.90;;
53263;SDS011;39153;52.680;6.172;2024-02-21T12:19:20;14.52;;;7.45;;
53263;SDS011;39153;52.680;6.172;2024-02-21T12:21:47;12.40;;;7.68;;
53263;SDS011;39153;52.680;6.172;2024-02-21T12:24:21;11.65;;;7.57;;
53263;SDS011;39153;52.680;6.172;2024-02-21T12:26:48;12.77;;;7.33;;
53263;SDS011;39153;52.680;6.172;2024-02-21T12:29:14;11.32;;;6.82;;
53263;SDS011;39153;52.680;6.172;2024-02-21T12:31:40;9.40;;;6.53;;
53263;SDS011;39153;52.680;6.172;2024-02-21T12:34:06;10.73;;;7.03;;
53263;SDS011;39153;52.680;6.172;2024-02-21T12:36:32;10.02;;;6.40;;
53263;SDS011;39153;52.680;6.172;2024-02-21T12:38:58;9.45;;;6.10;;
53263;SDS011;39153;52.680;6.172;2024-02-21T12:41:26;9.35;;;5.30;;
53263;SDS011;39153;52.680;6.172;2024-02-21T12:43:53;7.60;;;5.20;;
53263;SDS011;39153;52.680;6.172;2024-02-21T12:46:18;9.35;;;5.50;;
53263;SDS011;39153;52.680;6.172;2024-02-21T12:48:44;8.07;;;5.35;;
53263;SDS011;39153;52.680;6.172;2024-02-21T12:51:09;11.43;;;5.53;;
53263;SDS011;39153;52.680;6.172;2024-02-21T12:53:35;10.05;;;5.90;;
53263;SDS011;39153;52.680;6.172;2024-02-21T12:56:01;10.85;;;5.95;;
53263;SDS011;39153;52.680;6.172;2024-02-21T12:58:27;9.05;;;5.85;;
53263;SDS011;39153;52.680;6.172;2024-02-21T13:00:56;10.63;;;6.28;;
53263;SDS011;39153;52.680;6.172;2024-02-21T13:03:22;9.55;;;6.25;;
53263;SDS011;39153;52.680;6.172;2024-02-21T13:05:47;9.80;;;6.43;;
53263;SDS011;39153;52.680;6.172;2024-02-21T13:08:13;10.63;;;5.97;;
53263;SDS011;39153;52.680;6.172;2024-02-21T13:10:39;8.95;;;6.13;;
53263;SDS011;39153;52.680;6.172;2024-02-21T13:13:04;11.70;;;6.32;;
53263;SDS011;39153;52.680;6.172;2024-02-21T13:15:30;11.63;;;6.68;;
53263;SDS011;39153;52.680;6.172;2024-02-21T13:17:56;10.55;;;6.63;;
53263;SDS011;39153;52.680;6.172;2024-02-21T13:20:25;13.00;;;6.97;;
53263;SDS011;39153;52.680;6.172;2024-02-21T13:22:51;9.88;;;6.30;;
53263;SDS011;39153;52.680;6.172;2024-02-21T13:25:17;10.75;;;7.10;;
53263;SDS011;39153;52.680;6.172;2024-02-21T13:27:43;12.02;;;7.43;;
53263;SDS011;39153;52.680;6.172;2024-02-21T13:30:09;10.50;;;6.57;;
53263;SDS011;39153;52.680;6.172;2024-02-21T13:32:36;11.30;;;7.03;;
53263;SDS011;39153;52.680;6.172;2024-02-21T13:35:02;11.27;;;6.90;;
53263;SDS011;39153;52.680;6.172;2024-02-21T13:37:28;11.05;;;7.10;;
53263;SDS011;39153;52.680;6.172;2024-02-21T13:39:54;11.82;;;7.03;;
53263;SDS011;39153;52.680;6.172;2024-02-21T13:42:19;10.60;;;7.03;;
53263;SDS011;39153;52.680;6.172;2024-02-21T13:44:45;15.85;;;7.63;;
53263;SDS011;39153;52.680;6.172;2024-02-21T13:47:12;11.82;;;6.85;;
53263;SDS011;39153;52.680;6.172;2024-02-21T13:49:39;12.82;;;7.60;;
53263;SDS011;39153;52.680;6.172;2024-02-21T13:52:05;13.93;;;6.88;;
53263;SDS011;39153;52.680;6.172;2024-02-21T13:54:30;12.68;;;7.70;;
53263;SDS011;39153;52.680;6.172;2024-02-21T13:56:56;12.73;;;7.43;;
53263;SDS011;39153;52.680;6.172;2024-02-21T13:59:22;13.60;;;7.53;;
53263;SDS011;39153;52.680;6.172;2024-02-21T14:01:47;13.23;;;7.18;;
53263;SDS011;39153;52.680;6.172;2024-02-21T14:04:13;15.60;;;7.40;;
53263;SDS011;39153;52.680;6.172;2024-02-21T14:06:39;15.18;;;8.13;;
53263;SDS011;39153;52.680;6.172;2024-02-21T14:09:17;10.80;;;7.00;;
53263;SDS011;39153;52.680;6.172;2024-02-21T14:11:43;13.80;;;8.00;;
53263;SDS011;39153;52.680;6.172;2024-02-21T14:14:10;13.00;;;7.80;;
53263;SDS011;39153;52.680;6.172;2024-02-21T14:16:36;14.48;;;6.97;;
53263;SDS011;39153;52.680;6.172;2024-02-21T14:19:03;13.98;;;7.65;;
53263;SDS011;39153;52.680;6.172;2024-02-21T14:21:28;15.55;;;7.57;;
53263;SDS011;39153;52.680;6.172;2024-02-21T14:23:54;12.07;;;7.70;;
53263;SDS011;39153;52.680;6.172;2024-02-21T14:26:21;13.32;;;7.32;;
53263;SDS011;39153;52.680;6.172;2024-02-21T14:28:47;13.07;;;7.00;;
53263;SDS011;39153;52.680;6.172;2024-02-21T14:31:13;12.50;;;7.25;;
53263;SDS011;39153;52.680;6.172;2024-02-21T14:33:38;17.75;;;7.85;;
53263;SDS011;39153;52.680;6.172;2024-02-21T14:36:04;13.27;;;7.43;;